Nearby METAR Reports

 

K1V6 - Canon City, Colorado, USA
Distance from station: NE 34mi, 55km
Updated: 01/19/2022 12:55pm MST
Mist, Overcast
Mist, Overcast
 Wind from E
Wind: E 10 mph , 17 km/h
Temperature: 28°F , -2°C
Wind Chill: 19°F , -7°C
Dew Point: 27°F , -3°C
Humidity: 93%
Barometer: 30.22 inHg , 1023.4 hPa
Summary: Mist
Clouds: Overcast
Visibility: 2 miles , 3 km
Cloud details: Overcast 400 ft
2022/01/19 19:55 K1V6 191955Z AUTO 09009KT 2SM BR OVC004 M02/M03 A3022 RMK AO2
K04V - Saguache Muni, Colorado, USA
Distance from station: W 35mi, 56km
Updated: 01/19/2022 12:55pm MST
Clear
Clear
 Wind from SSE
Wind: SSE 6 mph , 9 km/h
Temperature: 37°F , 3°C
Wind Chill: 32°F , 0°C
Dew Point: 16°F , -9°C
Humidity: 41%
Barometer: 30.03 inHg , 1016.9 hPa
Clouds: Clear
Visibility: 10 miles , 16 km
2022/01/19 19:55 K04V 191955Z AUTO 15005KT 10SM CLR 03/M09 A3003 RMK AO2
 
KANK - Salida, Colorado, USA
Distance from station: NW 43mi, 69km
Updated: 01/19/2022 12:55pm MST
Clear
Clear
 Wind from SE
Wind: SE 13 mph , 20 km/h, Gust: 21 mph , 33 km/h
Temperature: 36°F , 2°C
Wind Chill: 27°F , -3°C
Dew Point: 16°F , -9°C
Humidity: 44%
Barometer: 30.13 inHg , 1020.3 hPa
Clouds: Clear
Visibility: 10 miles , 16 km
2022/01/19 19:55 KANK 191955Z AUTO 13011G18KT 10SM CLR 02/M09 A3013 RMK AO1 T00211089
KVTP - La Veta Pass, Colorado, USA
Distance from station: SSE 44mi, 71km
Updated: 01/19/2022 12:55pm MST
Heavy snow, Overcast
Heavy snow, Overcast
 Wind from ENE
Wind: ENE 6 mph , 9 km/h
Temperature: 14°F , -10°C
Wind Chill: 5°F , -15°C
Dew Point: 14°F , -10°C
Humidity: 100%
Barometer: 30.05 inHg , 1017.6 hPa
Summary: Heavy Snow
Clouds: Overcast
Visibility: less than 1/4 mile , 0.4 km
Cloud details: Overcast 100 ft
2022/01/19 19:55 KVTP 191955Z AUTO 06005KT M1/4SM +SN OVC001 M10/M10 A3005 RMK AO2
 
KALS - Alamosa, Colorado, USA
Distance from station: SSW 48mi, 77km
Updated: 01/19/2022 12:52pm MST
Clear
Clear
 Wind from calm
Wind: Calm
Temperature: 39°F , 4°C
Dew Point: 16°F , -9°C
Humidity: 39%
Barometer: 30.03 inHg , 1016.9 hPa
Clouds: Clear
Visibility: 10 miles , 16 km
2022/01/19 19:52 KALS 191952Z AUTO 00000KT 10SM CLR 04/M09 A3003 RMK AO2 SLP177 T00441094